Startpagina
METAR-TAF:

METAR-TAF

Vliegvelden :

Flughafen Dortmund

Dortmund, Duitsland

breedte: 51-31N, lengte: 007-37E, hoogte: 127 m

Actueel weer

Dit bericht is 38 minuten geleden gemaakt, om 01:50 UTC
Wind 4 kt uit het zuidoosten
Temperatuur 19°C
Vochtigheid 83%
Druk 1018 hPa
Zicht 10 km of meer

METAR: EDLW 260150Z AUTO 14004KT 9999 // NCD 19/16 Q1018

Tijdstip: 04:28 (02:28 UTC)

Verwachting

Dit bericht is 9 uur en het 28 minuten geleden gemaakt, om 17:00 UTC
Verwachting geldig van 25 om 18 UTC tot 26 om 18 UTC
Wind 3 kt uit variabele richting
Zicht 10 km of meer
geen wolken onder 1500 m en geen cumulonimbus
Wijzigt naar
van 26 om 08 UTC tot 26 om 11 UTC
Wind 6 kt uit het noordoosten
Kans 30% :
Tijdelijke
van 26 om 14 UTC tot 26 om 17 UTC
Gebroken wolken op 4000 ft, Cumulonimbus.
onweer, regen

TAF: EDLW 251700Z 2518/2618 VRB03KT CAVOK BECMG 2608/2611 05006KT PROB30 TEMPO 2614/2617 TSRA BKN040CB

Waarnemingen en weersverwachtingen van meer dan 4000 vliegvelden (METAR en TAF).

De beschikbare stations zijn de gele en rode punten op de kaart.

Ga met uw muis naar het station om de naam te zien.

Klik dan om waarnemingen en weersverwachtingen te zien.

kaart wijzigen: klik op de groene knoppen met een zwart kruis om in te zoomen, op de groene knop met een streepje om uit te zoomen of op de groene pijlen voor aangrenzende kaarten.


METAR-TAF: